createdAt,value
2022-10-24T00:00:09.719Z,100923.23
2022-10-24T00:02:59.048Z,100925.80
2022-10-24T00:05:27.467Z,100922.02
2022-10-24T00:07:55.813Z,100924.14
2022-10-24T00:11:24.547Z,100917.61
2022-10-24T00:13:54.579Z,100921.12
2022-10-24T00:16:22.912Z,100918.48
2022-10-24T00:18:51.624Z,100913.73
2022-10-24T00:21:20.227Z,100910.52
2022-10-24T00:23:48.598Z,100904.50
2022-10-24T00:26:17.021Z,100903.55
2022-10-24T00:28:45.986Z,100903.07
2022-10-24T00:31:16.620Z,100897.02
2022-10-24T00:33:46.055Z,100901.74
2022-10-24T00:36:17.952Z,100899.98
2022-10-24T00:38:47.073Z,100892.50
2022-10-24T00:41:16.978Z,100887.29
2022-10-24T00:43:46.108Z,100879.80
2022-10-24T00:46:16.430Z,100878.17
2022-10-24T00:48:48.066Z,100871.99
2022-10-24T00:51:21.370Z,100872.23
2022-10-24T00:53:52.737Z,100874.23
2022-10-24T00:56:25.808Z,100872.46
2022-10-24T00:58:56.569Z,100865.33
2022-10-24T01:01:26.274Z,100856.05
2022-10-24T01:03:54.792Z,100855.58
2022-10-24T01:06:36.634Z,100844.88
2022-10-24T01:09:16.435Z,100836.58
2022-10-24T01:11:56.313Z,100826.58
2022-10-24T01:14:36.883Z,100822.65
2022-10-24T01:17:13.299Z,100818.06
2022-10-24T01:20:26.707Z,100818.19
2022-10-24T01:23:05.821Z,100815.84
2022-10-24T01:25:44.439Z,100813.88
2022-10-24T01:28:15.137Z,100809.87
2022-10-24T01:30:45.958Z,100805.30
2022-10-24T01:33:23.070Z,100804.37
2022-10-24T01:35:58.106Z,100807.94
2022-10-24T01:38:33.330Z,100811.26
2022-10-24T01:41:05.910Z,100809.54
2022-10-24T01:43:39.571Z,100807.73
2022-10-24T01:46:12.704Z,100800.25
2022-10-24T01:48:45.409Z,100800.91
2022-10-24T01:51:17.212Z,100802.12
2022-10-24T01:53:47.536Z,100805.58
2022-10-24T01:56:16.103Z,100802.08
2022-10-24T01:58:45.006Z,100795.55
2022-10-24T02:01:19.321Z,100793.86
2022-10-24T02:03:53.491Z,100796.10
2022-10-24T02:06:28.687Z,100798.77
2022-10-24T02:09:01.103Z,100792.58
2022-10-24T02:11:30.313Z,100787.77
2022-10-24T02:14:05.603Z,100786.83
2022-10-24T02:16:35.302Z,100782.92
2022-10-24T02:19:04.608Z,100779.55
2022-10-24T02:21:37.309Z,100774.95
2022-10-24T02:24:15.234Z,100771.68
2022-10-24T02:26:51.622Z,100766.00
2022-10-24T02:29:27.023Z,100766.31
2022-10-24T02:31:58.389Z,100776.55
2022-10-24T02:34:31.788Z,100776.31
2022-10-24T02:37:03.726Z,100773.18
2022-10-24T02:39:34.596Z,100770.81
2022-10-24T02:42:05.315Z,100764.91
2022-10-24T02:44:35.134Z,100761.24
2022-10-24T02:47:06.276Z,100761.91
2022-10-24T02:49:34.775Z,100761.33
2022-10-24T02:52:03.881Z,100753.27
2022-10-24T02:54:32.729Z,100748.50
2022-10-24T02:57:03.977Z,100750.27
2022-10-24T02:59:32.443Z,100747.42
2022-10-24T03:02:03.106Z,100743.52
2022-10-24T03:04:31.772Z,100743.41
2022-10-24T03:07:00.343Z,100749.41
2022-10-24T03:10:02.015Z,100741.55
2022-10-24T03:12:30.522Z,100741.90
2022-10-24T03:14:58.899Z,100741.16
2022-10-24T03:17:29.769Z,100736.03
2022-10-24T03:19:58.225Z,100726.74
2022-10-24T03:22:30.621Z,100712.27
2022-10-24T03:25:01.567Z,100707.39
2022-10-24T03:27:30.261Z,100696.52
2022-10-24T03:29:58.644Z,100688.10
2022-10-24T03:32:27.608Z,100687.04
2022-10-24T03:34:56.097Z,100685.16
2022-10-24T03:37:24.605Z,100681.04
2022-10-24T03:39:52.943Z,100678.66
2022-10-24T03:42:21.337Z,100675.73
2022-10-24T03:44:49.809Z,100678.38
2022-10-24T03:47:19.085Z,100688.77
2022-10-24T03:49:47.424Z,100695.52
2022-10-24T03:52:16.012Z,100683.75
2022-10-24T03:54:44.595Z,100679.09
2022-10-24T03:57:14.013Z,100679.33
2022-10-24T03:59:42.531Z,100678.96
2022-10-24T04:02:12.638Z,100677.96
2022-10-24T04:04:41.726Z,100671.49
2022-10-24T04:07:10.107Z,100670.20
2022-10-24T04:09:38.393Z,100673.47
2022-10-24T04:12:07.440Z,100668.30
2022-10-24T04:14:36.372Z,100660.63
2022-10-24T04:17:04.833Z,100661.94
2022-10-24T04:19:33.453Z,100651.83
2022-10-24T04:22:01.789Z,100649.10
2022-10-24T04:24:30.327Z,100645.08
2022-10-24T04:27:00.011Z,100639.93
2022-10-24T04:29:28.416Z,100635.70
2022-10-24T04:31:56.839Z,100632.27
2022-10-24T04:34:25.172Z,100626.38
2022-10-24T04:36:53.921Z,100628.39
2022-10-24T04:39:22.350Z,100632.33
2022-10-24T04:41:50.754Z,100629.52
2022-10-24T04:44:19.140Z,100627.97
2022-10-24T04:46:50.664Z,100625.61
2022-10-24T04:49:20.070Z,100625.58
2022-10-24T04:51:48.456Z,100624.35
2022-10-24T04:54:16.836Z,100622.48
2022-10-24T04:56:45.271Z,100641.81
2022-10-24T04:59:15.018Z,100669.31
2022-10-24T05:01:43.643Z,100673.17
2022-10-24T05:04:12.306Z,100682.23
2022-10-24T05:06:44.137Z,100686.69
2022-10-24T05:09:13.597Z,100686.52
2022-10-24T05:11:42.132Z,100685.45
2022-10-24T05:14:10.772Z,100677.10
2022-10-24T05:16:39.915Z,100674.55
2022-10-24T05:19:08.304Z,100672.52
2022-10-24T05:21:36.637Z,100673.35
2022-10-24T05:24:05.414Z,100666.30
2022-10-24T05:26:34.143Z,100682.08
2022-10-24T05:29:02.919Z,100685.91
2022-10-24T05:31:33.989Z,100698.45
2022-10-24T05:34:02.432Z,100695.33
2022-10-24T05:36:31.074Z,100691.36
2022-10-24T05:38:59.500Z,100699.38
2022-10-24T05:41:27.979Z,100698.09
2022-10-24T05:43:56.476Z,100696.21
2022-10-24T05:46:25.410Z,100694.23
2022-10-24T05:48:54.048Z,100697.13
2022-10-24T05:51:22.605Z,100697.29
2022-10-24T05:53:50.953Z,100692.55
2022-10-24T05:56:19.393Z,100695.73
2022-10-24T05:58:50.626Z,100689.87
2022-10-24T06:01:19.119Z,100691.95
2022-10-24T06:03:47.476Z,100687.65
2022-10-24T06:06:15.941Z,100681.19
2022-10-24T06:08:44.352Z,100677.73
2022-10-24T06:11:16.357Z,100672.70
2022-10-24T06:13:44.936Z,100685.61
2022-10-24T06:16:13.282Z,100693.48
2022-10-24T06:18:42.236Z,100695.12
2022-10-24T06:21:12.829Z,100696.02
2022-10-24T06:23:41.216Z,100696.86
2022-10-24T06:26:10.972Z,100693.94
2022-10-24T06:28:40.581Z,100694.04
2022-10-24T06:31:13.414Z,100700.21
2022-10-24T06:33:41.875Z,100697.80
2022-10-24T06:36:11.503Z,100692.88
2022-10-24T06:38:40.080Z,100694.41
2022-10-24T06:41:11.270Z,100698.24
2022-10-24T06:43:41.862Z,100701.39
2022-10-24T06:46:13.318Z,100702.25
2022-10-24T06:48:42.149Z,100705.05
2022-10-24T06:51:14.169Z,100714.50
2022-10-24T06:53:42.783Z,100716.24
2022-10-24T06:56:12.338Z,100710.72
2022-10-24T06:58:41.213Z,100716.30
2022-10-24T07:01:12.930Z,100712.89
2022-10-24T07:03:41.630Z,100712.08
2022-10-24T07:06:15.167Z,100717.09
2022-10-24T07:08:43.627Z,100725.46
2022-10-24T07:11:12.132Z,100733.24
2022-10-24T07:13:40.817Z,100730.23
2022-10-24T07:16:09.480Z,100721.51
2022-10-24T07:18:38.881Z,100717.64
2022-10-24T07:21:09.025Z,100716.07
2022-10-24T07:23:37.399Z,100716.30
2022-10-24T07:26:07.916Z,100711.98
2022-10-24T07:28:38.764Z,100709.25
2022-10-24T07:31:07.786Z,100707.38
2022-10-24T07:33:38.581Z,100705.05
2022-10-24T07:36:08.837Z,100697.41
2022-10-24T07:38:37.332Z,100702.34
2022-10-24T07:41:06.508Z,100706.34
2022-10-24T07:43:34.897Z,100704.54
2022-10-24T07:46:07.372Z,100702.73
2022-10-24T07:48:37.321Z,100703.02
2022-10-24T07:51:08.318Z,100700.39
2022-10-24T07:53:37.382Z,100697.90
2022-10-24T07:56:09.962Z,100697.40
2022-10-24T07:58:38.487Z,100698.38
2022-10-24T08:01:09.617Z,100695.40
2022-10-24T08:03:38.415Z,100690.85
2022-10-24T08:06:10.950Z,100689.66
2022-10-24T08:08:40.134Z,100685.38
2022-10-24T08:11:10.563Z,100682.70
2022-10-24T08:13:39.611Z,100673.52
2022-10-24T08:16:10.908Z,100669.69
2022-10-24T08:18:40.298Z,100664.13
2022-10-24T08:21:11.880Z,100662.02
2022-10-24T08:23:43.426Z,100664.91
2022-10-24T08:26:14.581Z,100668.69
2022-10-24T08:28:43.411Z,100667.59
2022-10-24T08:31:14.124Z,100670.20
2022-10-24T08:33:42.945Z,100665.95
2022-10-24T08:36:19.028Z,100669.77
2022-10-24T08:38:47.655Z,100674.11
2022-10-24T08:41:23.995Z,100673.88
2022-10-24T08:43:53.638Z,100673.94
2022-10-24T08:46:37.047Z,100666.80
2022-10-24T08:49:16.300Z,100668.44
2022-10-24T08:51:50.995Z,100669.56
2022-10-24T08:54:24.689Z,100668.31
2022-10-24T08:56:57.338Z,100673.13
2022-10-24T08:59:28.741Z,100667.57
2022-10-24T09:02:03.544Z,100666.77
2022-10-24T09:04:43.334Z,100672.92
2022-10-24T09:07:18.346Z,100670.77
2022-10-24T09:09:50.520Z,100668.36
2022-10-24T09:12:20.649Z,100665.39
2022-10-24T09:14:57.688Z,100670.51
2022-10-24T09:17:31.454Z,100678.36
2022-10-24T09:20:06.689Z,100680.59
2022-10-24T09:22:38.428Z,100676.65
2022-10-24T09:25:14.791Z,100675.83
2022-10-24T09:27:44.431Z,100664.21
2022-10-24T09:30:18.462Z,100658.98
2022-10-24T09:32:47.777Z,100659.83
2022-10-24T09:35:21.197Z,100658.27
2022-10-24T09:37:51.564Z,100651.70
2022-10-24T09:40:23.490Z,100645.05
2022-10-24T09:42:58.741Z,100652.63
2022-10-24T09:45:34.104Z,100655.69
2022-10-24T09:48:07.247Z,100650.55
2022-10-24T09:50:36.254Z,100657.13
2022-10-24T09:53:05.577Z,100660.06
2022-10-24T09:55:46.308Z,100655.56
2022-10-24T09:58:20.415Z,100656.85
2022-10-24T10:01:01.008Z,100658.35
2022-10-24T10:03:31.115Z,100666.88
2022-10-24T10:06:05.082Z,100668.25
2022-10-24T10:08:36.505Z,100659.80
2022-10-24T10:11:08.619Z,100655.30
2022-10-24T10:13:49.495Z,100648.85
2022-10-24T10:16:24.713Z,100649.81
2022-10-24T10:19:03.462Z,100644.15
2022-10-24T10:21:55.721Z,100650.65
2022-10-24T10:24:38.613Z,100649.99
2022-10-24T10:27:37.084Z,100649.68
2022-10-24T10:30:17.387Z,100645.98
2022-10-24T10:32:56.717Z,100658.73
2022-10-24T10:35:32.479Z,100658.63
2022-10-24T10:38:13.687Z,100661.41
2022-10-24T10:44:49.118Z,100658.56
2022-10-24T10:47:34.479Z,100665.40
2022-10-24T10:52:55.018Z,100670.69
2022-10-24T10:55:35.084Z,100675.63
2022-10-24T10:58:17.803Z,100678.55
2022-10-24T11:01:00.390Z,100678.29
2022-10-24T11:03:37.479Z,100675.38
2022-10-24T11:06:20.093Z,100669.17
2022-10-24T11:09:10.318Z,100665.30
2022-10-24T11:11:42.687Z,100664.39
2022-10-24T11:14:26.150Z,100661.07
2022-10-24T11:17:01.377Z,100650.96
2022-10-24T11:19:39.258Z,100647.65
2022-10-24T11:22:15.674Z,100642.52
2022-10-24T11:24:53.316Z,100638.44
2022-10-24T11:27:28.448Z,100632.54
2022-10-24T11:30:02.746Z,100624.55
2022-10-24T11:32:38.153Z,100621.70
2022-10-24T11:35:22.210Z,100618.23
2022-10-24T11:37:54.221Z,100625.63
2022-10-24T11:40:25.342Z,100631.63
2022-10-24T11:42:58.262Z,100624.73
2022-10-24T11:45:33.015Z,100623.96
2022-10-24T11:48:12.729Z,100617.14
2022-10-24T11:50:48.510Z,100613.77
2022-10-24T11:53:39.236Z,100614.35
2022-10-24T11:56:30.425Z,100609.70
2022-10-24T11:59:02.808Z,100618.27
2022-10-24T12:01:47.253Z,100621.59
2022-10-24T12:04:38.995Z,100624.85
2022-10-24T12:07:48.393Z,100620.58
2022-10-24T12:10:40.823Z,100617.57
2022-10-24T12:13:26.350Z,100614.68
2022-10-24T12:16:02.885Z,100613.99
2022-10-24T12:18:36.016Z,100606.50
2022-10-24T12:21:08.708Z,100604.16
2022-10-24T12:23:39.961Z,100605.97
2022-10-24T12:26:18.108Z,100610.23
2022-10-24T12:28:55.711Z,100611.50
2022-10-24T12:31:29.181Z,100607.25
2022-10-24T12:34:49.180Z,100605.48
2022-10-24T12:37:36.150Z,100607.98
2022-10-24T12:40:41.123Z,100602.20
2022-10-24T12:43:26.401Z,100597.84
2022-10-24T12:45:56.298Z,100594.84
2022-10-24T12:48:33.121Z,100594.01
2022-10-24T12:51:29.769Z,100589.94
2022-10-24T12:54:05.269Z,100581.86
2022-10-24T12:56:34.642Z,100579.29
2022-10-24T12:59:17.622Z,100583.45
2022-10-24T13:01:48.162Z,100582.81
2022-10-24T13:04:46.159Z,100587.40
2022-10-24T13:07:50.918Z,100584.73
2022-10-24T13:10:39.192Z,100576.30
2022-10-24T13:13:30.090Z,100579.44
2022-10-24T13:16:07.343Z,100587.45
2022-10-24T13:18:50.731Z,100591.36
2022-10-24T13:21:26.741Z,100591.16
2022-10-24T13:24:11.872Z,100586.74
2022-10-24T13:26:45.858Z,100583.12
2022-10-24T13:29:36.270Z,100587.66
2022-10-24T13:32:30.704Z,100590.13
2022-10-24T13:35:01.598Z,100587.44
2022-10-24T13:37:35.168Z,100591.59
2022-10-24T13:40:14.357Z,100589.16
2022-10-24T13:42:51.387Z,100591.69
2022-10-24T13:45:26.356Z,100594.92
2022-10-24T13:48:00.662Z,100597.46
2022-10-24T13:50:33.430Z,100599.51
2022-10-24T13:53:13.022Z,100594.97
2022-10-24T13:55:47.314Z,100598.33
2022-10-24T13:58:20.574Z,100598.95
2022-10-24T14:00:54.979Z,100597.39
2022-10-24T14:03:26.986Z,100592.95
2022-10-24T14:05:59.397Z,100591.02
2022-10-24T14:08:32.265Z,100590.60
2022-10-24T14:11:04.882Z,100585.33
2022-10-24T14:13:38.396Z,100582.14
2022-10-24T14:16:08.751Z,100578.42
2022-10-24T14:18:38.986Z,100576.37
2022-10-24T14:21:19.379Z,100574.77
2022-10-24T14:23:56.561Z,100576.61
2022-10-24T14:26:26.126Z,100577.60
2022-10-24T14:28:59.853Z,100581.18
2022-10-24T14:31:34.222Z,100583.36
2022-10-24T14:34:05.809Z,100584.00
2022-10-24T14:36:37.958Z,100583.65
2022-10-24T14:39:07.394Z,100577.00
2022-10-24T14:41:42.028Z,100573.89
2022-10-24T14:44:15.131Z,100582.65
2022-10-24T14:46:45.692Z,100580.92
2022-10-24T14:49:29.667Z,100575.05
2022-10-24T14:52:36.149Z,100584.45
2022-10-24T14:55:17.842Z,100586.58
2022-10-24T14:57:59.669Z,100581.94
2022-10-24T15:00:38.060Z,100582.86
2022-10-24T15:03:41.442Z,100579.02
2022-10-24T15:06:21.906Z,100572.06
2022-10-24T15:09:15.457Z,100575.87
2022-10-24T15:12:35.553Z,100578.80
2022-10-24T15:15:24.167Z,100581.30
2022-10-24T15:17:56.726Z,100581.21
2022-10-24T15:20:29.432Z,100579.02
2022-10-24T15:22:59.834Z,100572.19
2022-10-24T15:25:34.787Z,100572.17
2022-10-24T15:28:07.422Z,100567.86
2022-10-24T15:30:37.436Z,100565.63
2022-10-24T15:33:07.061Z,100569.79
2022-10-24T15:35:42.226Z,100573.27
2022-10-24T15:38:15.519Z,100580.36
2022-10-24T15:40:46.993Z,100582.01
2022-10-24T15:43:18.974Z,100583.05
2022-10-24T15:45:47.979Z,100579.52
2022-10-24T15:48:17.110Z,100582.98
2022-10-24T15:50:47.132Z,100588.20
2022-10-24T15:53:19.682Z,100583.93
2022-10-24T15:55:48.960Z,100581.66
2022-10-24T15:58:18.596Z,100580.34
2022-10-24T16:00:48.031Z,100579.38
2022-10-24T16:03:21.808Z,100585.86
2022-10-24T16:05:54.276Z,100591.63
2022-10-24T16:08:23.617Z,100588.30
2022-10-24T16:10:53.024Z,100592.84
2022-10-24T16:14:11.231Z,100596.82
2022-10-24T16:16:54.818Z,100601.02
2022-10-24T16:19:25.829Z,100612.09
2022-10-24T16:21:57.732Z,100607.15
2022-10-24T16:24:27.456Z,100605.39
2022-10-24T16:26:56.445Z,100598.13
2022-10-24T16:29:25.551Z,100602.69
2022-10-24T16:31:55.166Z,100604.67
2022-10-24T16:34:24.701Z,100604.73
2022-10-24T16:36:54.601Z,100602.39
2022-10-24T16:39:23.961Z,100603.35
2022-10-24T16:41:55.490Z,100605.20
2022-10-24T16:44:26.730Z,100601.06
2022-10-24T16:47:32.337Z,100599.59
2022-10-24T16:49:59.006Z,100600.71
2022-10-24T16:52:28.942Z,100601.57
2022-10-24T16:54:58.341Z,100601.41
2022-10-24T16:57:27.312Z,100602.47
2022-10-24T16:59:59.148Z,100603.48
2022-10-24T17:02:28.126Z,100606.52
2022-10-24T17:05:04.308Z,100604.58
2022-10-24T17:11:43.398Z,100594.97
2022-10-24T17:14:05.932Z,100589.55
2022-10-24T17:16:35.392Z,100586.35
2022-10-24T17:19:15.530Z,100589.03
2022-10-24T17:21:48.443Z,100588.21
2022-10-24T17:24:54.443Z,100587.55
2022-10-24T17:27:58.847Z,100591.41
2022-10-24T17:30:29.370Z,100588.31
2022-10-24T17:35:45.439Z,100588.45
2022-10-24T17:38:28.865Z,100587.73
2022-10-24T17:41:01.982Z,100589.80
2022-10-24T17:43:31.319Z,100595.19
2022-10-24T17:46:06.120Z,100592.45
2022-10-24T17:49:03.153Z,100591.98
2022-10-24T17:51:36.458Z,100591.00
2022-10-24T17:54:08.612Z,100591.77
2022-10-24T17:56:37.287Z,100593.67
2022-10-24T17:59:16.139Z,100592.86
2022-10-24T18:05:37.218Z,100596.05
2022-10-24T18:08:07.143Z,100594.33
2022-10-24T18:10:37.279Z,100591.71
2022-10-24T18:13:09.568Z,100591.15
2022-10-24T18:15:44.163Z,100595.45
2022-10-24T18:18:12.690Z,100588.42
2022-10-24T18:20:41.229Z,100588.63
2022-10-24T18:23:09.935Z,100594.48
2022-10-24T18:26:14.846Z,100585.33
2022-10-24T18:28:45.945Z,100590.73
2022-10-24T18:31:20.234Z,100589.04
2022-10-24T18:33:49.373Z,100589.04
2022-10-24T18:36:20.305Z,100587.38
2022-10-24T18:38:48.726Z,100591.17
2022-10-24T18:41:33.422Z,100579.42
2022-10-24T18:44:21.806Z,100588.98
2022-10-24T18:46:55.737Z,100585.39
2022-10-24T18:49:25.859Z,100581.15
2022-10-24T18:52:04.104Z,100585.39
2022-10-24T18:54:39.624Z,100585.96
2022-10-24T18:57:21.363Z,100585.77
2022-10-24T19:00:07.912Z,100588.52
2022-10-24T19:03:24.429Z,100568.75
2022-10-24T19:05:58.737Z,100582.17
2022-10-24T19:08:30.915Z,100580.88
2022-10-24T19:11:05.824Z,100581.48
2022-10-24T19:13:36.364Z,100574.84
2022-10-24T19:16:18.681Z,100579.98
2022-10-24T19:18:52.332Z,100579.91
2022-10-24T19:21:22.468Z,100580.30
2022-10-24T19:23:51.951Z,100579.94
2022-10-24T19:26:20.918Z,100592.06
2022-10-24T19:28:53.588Z,100597.80
2022-10-24T19:31:22.108Z,100595.77
2022-10-24T19:33:53.479Z,100584.30
2022-10-24T19:36:22.073Z,100580.41
2022-10-24T19:38:55.508Z,100571.64
2022-10-24T19:41:24.272Z,100568.85
2022-10-24T19:43:52.784Z,100562.17
2022-10-24T19:46:21.363Z,100560.21
2022-10-24T19:48:51.242Z,100560.20
2022-10-24T19:51:32.977Z,100558.30
2022-10-24T19:54:01.364Z,100563.64
2022-10-24T19:56:30.907Z,100573.15
2022-10-24T19:58:59.862Z,100585.10
2022-10-24T20:01:29.766Z,100591.17
2022-10-24T20:04:03.162Z,100597.65
2022-10-24T20:06:31.922Z,100604.05
2022-10-24T20:09:00.686Z,100607.65
2022-10-24T20:11:29.728Z,100607.70
2022-10-24T20:13:58.206Z,100612.92
2022-10-24T20:16:26.589Z,100616.80
2022-10-24T20:18:55.296Z,100618.40
2022-10-24T20:21:23.723Z,100616.58
2022-10-24T20:23:55.215Z,100612.75
2022-10-24T20:26:28.581Z,100605.82
2022-10-24T20:28:58.489Z,100609.31
2022-10-24T20:31:29.846Z,100609.64
2022-10-24T20:34:05.030Z,100605.10
2022-10-24T20:36:37.979Z,100604.11
2022-10-24T20:39:07.663Z,100606.90
2022-10-24T20:41:37.346Z,100609.45
2022-10-24T20:44:06.421Z,100607.58
2022-10-24T20:47:35.570Z,100609.98
2022-10-24T20:50:05.297Z,100608.19
2022-10-24T20:52:34.107Z,100615.08
2022-10-24T20:55:07.696Z,100615.17
2022-10-24T20:57:43.302Z,100619.83
2022-10-24T21:00:13.988Z,100616.54
2022-10-24T21:02:42.358Z,100614.93
2022-10-24T21:05:11.405Z,100619.48
2022-10-24T21:07:40.116Z,100623.09
2022-10-24T21:10:09.581Z,100624.85
2022-10-24T21:12:37.939Z,100624.76
2022-10-24T21:15:07.887Z,100628.20
2022-10-24T21:17:36.552Z,100626.48
2022-10-24T21:20:06.370Z,100629.98
2022-10-24T21:22:34.676Z,100633.52
2022-10-24T21:25:03.193Z,100636.30
2022-10-24T21:27:32.185Z,100637.84
2022-10-24T21:30:00.538Z,100652.42
2022-10-24T21:32:28.955Z,100653.52
2022-10-24T21:34:57.629Z,100657.58
2022-10-24T21:37:26.108Z,100652.51
2022-10-24T21:39:54.459Z,100641.59
2022-10-24T21:44:56.261Z,100642.36
2022-10-24T21:47:24.756Z,100632.04
2022-10-24T21:49:53.092Z,100624.42
2022-10-24T21:52:21.553Z,100631.11
2022-10-24T21:54:49.857Z,100645.31
2022-10-24T21:57:18.197Z,100648.52
2022-10-24T21:59:46.686Z,100650.64
2022-10-24T22:02:15.114Z,100650.09
2022-10-24T22:04:43.682Z,100654.59
2022-10-24T22:07:12.061Z,100652.98
2022-10-24T22:09:40.407Z,100650.38
2022-10-24T22:12:08.951Z,100646.52
2022-10-24T22:14:37.314Z,100653.48
2022-10-24T22:17:06.066Z,100653.38
2022-10-24T22:19:34.455Z,100653.42
2022-10-24T22:22:02.811Z,100659.43
2022-10-24T22:24:31.160Z,100660.83
2022-10-24T22:26:59.469Z,100663.45
2022-10-24T22:29:28.128Z,100668.64
2022-10-24T22:31:57.648Z,100674.59
2022-10-24T22:34:27.872Z,100676.05
2022-10-24T22:37:08.336Z,100678.23
2022-10-24T22:39:38.069Z,100677.95
2022-10-24T22:42:08.694Z,100685.22
2022-10-24T22:44:38.181Z,100687.02
2022-10-24T22:47:46.432Z,100692.59
2022-10-24T22:50:35.241Z,100694.36
2022-10-24T22:53:04.914Z,100705.45
2022-10-24T22:55:38.292Z,100702.48
2022-10-24T22:58:07.729Z,100698.73
2022-10-24T23:00:37.249Z,100696.34
2022-10-24T23:03:15.393Z,100708.15
2022-10-24T23:05:48.644Z,100707.03
2022-10-24T23:08:30.485Z,100700.96
2022-10-24T23:10:59.873Z,100696.27
2022-10-24T23:13:29.985Z,100693.86
2022-10-24T23:16:05.985Z,100688.02
2022-10-24T23:18:35.554Z,100688.65
2022-10-24T23:21:16.938Z,100693.30
2022-10-24T23:23:46.314Z,100686.48
2022-10-24T23:26:26.527Z,100682.39
2022-10-24T23:29:02.644Z,100683.39
2022-10-24T23:31:31.924Z,100684.21
2022-10-24T23:34:01.295Z,100684.16
2022-10-24T23:36:30.778Z,100685.81
2022-10-24T23:39:00.127Z,100681.87
2022-10-24T23:41:29.532Z,100684.55
2022-10-24T23:43:58.835Z,100686.21
2022-10-24T23:46:34.494Z,100685.98
2022-10-24T23:49:22.450Z,100685.11
2022-10-24T23:52:00.345Z,100689.94
2022-10-24T23:54:32.423Z,100696.59
2022-10-24T23:57:01.782Z,100697.19
2022-10-24T23:59:30.109Z,100701.71
